createdAt,value
2023-03-22T09:09:04.886Z,21.92
2023-03-22T09:11:21.703Z,22.08
2023-03-22T09:20:20.313Z,22.39
2023-03-22T11:07:48.620Z,23.08
2023-03-22T11:08:00.104Z,23.06
2023-03-22T11:08:10.658Z,23.05
2023-03-22T11:08:23.837Z,23.05
2023-03-22T11:08:36.391Z,23.02
2023-03-22T11:08:51.212Z,22.98
2023-03-22T11:09:03.738Z,22.93
2023-03-22T11:09:17.459Z,22.92
2023-03-22T11:09:29.735Z,22.91
2023-03-22T11:09:39.289Z,22.90
2023-03-22T11:09:53.167Z,22.90
2023-03-22T11:10:05.182Z,22.87
2023-03-22T11:10:16.968Z,22.86
2023-03-22T11:10:32.355Z,22.85
2023-03-22T11:10:49.214Z,22.83
2023-03-22T11:11:48.410Z,22.71
2023-03-22T11:12:02.214Z,22.72
2023-03-22T11:12:30.586Z,22.77
2023-03-22T11:12:47.409Z,22.81
2023-03-22T11:12:59.143Z,22.83
2023-03-22T11:13:12.195Z,22.86
2023-03-22T11:13:25.627Z,22.88
2023-03-22T11:13:38.082Z,22.90
2023-03-22T11:13:49.975Z,22.92
2023-03-22T11:14:05.201Z,22.95
2023-03-22T11:14:17.220Z,22.97
2023-03-22T11:14:30.112Z,23.00
2023-03-22T11:14:44.210Z,23.03
2023-03-22T11:14:57.539Z,23.06
2023-03-22T11:15:11.848Z,23.06
2023-03-22T11:15:27.178Z,23.09
2023-03-22T11:15:51.171Z,23.14
2023-03-22T11:17:05.795Z,24.81
2023-03-22T11:17:15.989Z,23.64
2023-03-22T11:17:28.161Z,22.70
2023-03-22T11:18:19.332Z,19.58
2023-03-22T11:18:29.055Z,19.33
2023-03-22T11:18:38.807Z,18.73
2023-03-22T11:18:49.573Z,18.33
2023-03-22T11:20:22.445Z,18.41
2023-03-22T11:20:33.980Z,18.79
2023-03-22T11:20:44.646Z,19.16
2023-03-22T11:20:55.619Z,19.56
2023-03-22T11:21:27.109Z,20.37
2023-03-22T11:21:48.836Z,20.72
2023-03-22T11:21:59.775Z,20.86
2023-03-22T11:22:21.606Z,21.12
2023-03-22T11:22:32.331Z,21.21
2023-03-22T11:22:42.952Z,21.29
2023-03-22T11:22:53.879Z,21.35
2023-03-22T11:23:04.755Z,21.43
2023-03-22T11:23:16.187Z,21.50
2023-03-22T11:23:26.573Z,21.42
2023-03-22T11:23:37.674Z,21.18
2023-03-22T11:23:49.673Z,20.91
2023-03-22T11:24:00.202Z,20.85
2023-03-22T11:27:00.131Z,19.89
2023-03-22T11:27:13.797Z,20.18
2023-03-22T11:27:35.748Z,20.45
2023-03-22T11:27:46.078Z,20.54
2023-03-22T11:28:54.803Z,21.03
2023-03-22T11:29:04.890Z,21.23
2023-03-22T11:29:15.299Z,21.46
2023-03-22T11:29:24.260Z,21.76
2023-03-22T11:29:36.765Z,21.98
2023-03-22T11:29:46.064Z,22.08
2023-03-22T11:30:02.080Z,22.32
2023-03-22T11:30:52.105Z,22.10
2023-03-22T11:31:01.524Z,22.05
2023-03-22T11:31:13.095Z,22.04
2023-03-22T11:31:26.347Z,22.05
2023-03-22T11:31:33.638Z,22.09
2023-03-22T11:32:57.656Z,22.16
2023-03-22T11:33:33.201Z,21.60
2023-03-22T11:33:54.118Z,21.55
2023-03-22T11:35:24.939Z,21.78
2023-03-22T11:35:36.542Z,22.02
2023-03-22T11:35:47.098Z,22.24
2023-03-22T11:35:57.631Z,22.43
2023-03-22T11:36:08.281Z,22.71
2023-03-22T11:36:18.729Z,22.80
2023-03-22T11:36:29.606Z,22.94
2023-03-22T11:36:40.762Z,22.84
2023-03-22T11:36:51.229Z,22.70
2023-03-22T11:37:01.692Z,22.81
2023-03-22T11:37:15.631Z,23.01
2023-03-22T11:37:23.476Z,23.40
2023-03-22T11:37:34.646Z,23.89
2023-03-22T11:37:45.995Z,24.36
2023-03-22T11:37:56.169Z,24.71
2023-03-22T11:38:07.497Z,25.00
2023-03-22T11:38:20.262Z,25.34
2023-03-22T11:38:29.133Z,25.63
2023-03-22T11:38:38.735Z,25.79
2023-03-22T11:38:49.880Z,26.02
2023-03-22T11:39:00.370Z,26.27
2023-03-22T11:39:11.532Z,26.44
2023-03-22T11:39:22.072Z,26.47
2023-03-22T11:39:33.191Z,26.48
2023-03-22T11:39:43.754Z,26.46
2023-03-22T11:39:54.828Z,26.46
2023-03-22T11:40:06.395Z,26.41
2023-03-22T11:40:16.411Z,26.41
2023-03-22T11:40:26.654Z,26.41
2023-03-22T11:40:37.706Z,26.42
2023-03-22T11:40:48.251Z,26.41
2023-03-22T11:41:00.106Z,26.39
2023-03-22T11:41:09.792Z,26.62
2023-03-22T11:41:20.751Z,26.77
2023-03-22T11:41:41.897Z,27.00
2023-03-22T11:41:53.496Z,27.13
2023-03-22T11:42:04.362Z,27.22
2023-03-22T11:42:15.706Z,27.32
2023-03-22T11:42:25.969Z,27.41
2023-03-22T11:42:37.014Z,27.50
2023-03-22T11:42:47.387Z,27.58
2023-03-22T11:42:58.415Z,27.68
2023-03-22T11:43:08.907Z,27.79
2023-03-22T11:43:19.343Z,27.90
2023-03-22T11:43:30.238Z,27.99
2023-03-22T11:43:41.118Z,28.07
2023-03-22T11:43:52.754Z,28.14
2023-03-22T11:44:02.880Z,28.24
2023-03-22T11:44:13.451Z,28.32
2023-03-22T11:44:24.337Z,28.36
